Lott, Texas
Current Conditions -  °F | °C
As of 7:15 AM on Tuesday 21 Oct 2014 (Local Time) from KTPL Reporting Station
Clear Clear  
Wind Chill: 54°   Ceiling: Unl
Heat Index: 54°   Visibility: 1.2mi
Dew Point: 48°   Wind: 5mph
Humidity: 82%   Direction: 340°NNW
Pressure: 30.06"   Gusts: NA
Location:  31.2°N, 97.04°W
Report Text: KTPL 211215Z AUTO 34004KT 1 1/4SM CLR 12/09 A3006 RMK AO1
Loading
Personal Weather Stations






























Interactive Weather Map
Tropical Storm Tracking
New forecast layout! Learn more

10-Day Weather Forecast

Advertisements
Track Severe Weather on mobile